Time;durP1;ratioP1;P1;durP2;ratioP2;P2;SDS_P1;SDS_P2;PMS_P1;PMS_P2;Temp;Humidity;BMP_temperature;BMP_pressure;BME280_temperature;BME280_humidity;BME280_pressure;Samples;Min_cycle;Max_cycle;Signal;HPM_P1;HPM_P2
2023/08/30 00:01:34;;;;;;;7.15;6.45;;;;;;;22.89;80.41;93749.94;5033035;28;20203;-43
2023/08/30 00:04:01;;;;;;;12.27;6.80;;;;;;;22.91;80.06;93753.88;5051161;28;20215;-44
2023/08/30 00:06:28;;;;;;;9.57;6.68;;;;;;;22.88;80.41;93743.91;5051072;28;20199;-44
2023/08/30 00:08:56;;;;;;;8.52;6.65;;;;;;;22.89;79.59;93737.66;5051373;28;20190;-44
2023/08/30 00:11:24;;;;;;;10.98;6.32;;;;;;;22.88;78.71;93743.91;5050959;28;20187;-44
2023/08/30 00:13:51;;;;;;;7.72;5.90;;;;;;;22.67;77.86;93726.38;5051297;28;20264;-44
2023/08/30 00:16:18;;;;;;;8.52;5.95;;;;;;;22.85;77.39;93764.47;5050966;28;20198;-43
2023/08/30 00:18:45;;;;;;;6.78;6.07;;;;;;;22.79;76.58;93760.97;5050823;28;20225;-44
2023/08/30 00:21:12;;;;;;;6.72;5.65;;;;;;;22.81;74.75;93763.34;5051302;28;20640;-44
2023/08/30 00:23:38;;;;;;;8.15;6.43;;;;;;;22.78;74.72;93762.00;5050787;28;20673;-44
2023/08/30 00:26:05;;;;;;;8.13;5.53;;;;;;;22.75;74.81;93747.63;5050895;28;20195;-43
2023/08/30 00:28:33;;;;;;;6.22;5.38;;;;;;;22.77;72.83;93748.16;5050745;28;20301;-43
2023/08/30 00:31:01;;;;;;;8.20;5.28;;;;;;;22.71;72.61;93749.13;5051189;28;20191;-44
2023/08/30 00:33:27;;;;;;;10.27;5.72;;;;;;;22.67;73.22;93753.22;5050396;28;20187;-44
2023/08/30 00:35:58;;;;;;;9.30;5.47;;;;;;;22.63;73.55;93749.50;5050778;28;20195;-45
2023/08/30 00:38:26;;;;;;;7.80;5.68;;;;;;;22.63;73.71;93746.13;5050598;28;20215;-43
2023/08/30 00:40:53;;;;;;;7.05;5.55;;;;;;;22.62;73.66;93747.13;5050840;28;20191;-44
2023/08/30 00:43:20;;;;;;;8.32;5.53;;;;;;;22.49;73.58;93738.56;5050550;28;20203;-44
2023/08/30 00:45:49;;;;;;;6.70;5.28;;;;;;;22.57;73.17;93752.25;5050723;28;20210;-43
2023/08/30 00:48:18;;;;;;;8.48;5.70;;;;;;;22.50;73.56;93755.00;5050095;28;20256;-44
2023/08/30 00:50:45;;;;;;;9.95;5.90;;;;;;;22.50;73.80;93750.59;5050356;28;20686;-44
2023/08/30 00:53:13;;;;;;;10.35;5.55;;;;;;;22.01;73.48;93694.69;5050448;28;20287;-44
2023/08/30 00:55:41;;;;;;;6.88;5.55;;;;;;;22.43;73.06;93767.38;5050334;28;20202;-44
2023/08/30 00:58:09;;;;;;;6.75;4.65;;;;;;;22.44;73.33;93781.97;5050422;28;20317;-43
2023/08/30 01:00:36;;;;;;;5.75;5.15;;;;;;;22.43;73.16;93780.41;5050360;28;20191;-42
2023/08/30 01:03:06;;;;;;;6.28;5.15;;;;;;;22.45;72.27;93770.53;5050324;28;20202;-43
2023/08/30 01:05:33;;;;;;;9.05;5.50;;;;;;;22.39;72.39;93761.84;5050008;28;20195;-43
2023/08/30 01:08:00;;;;;;;5.90;5.07;;;;;;;22.39;72.54;93761.84;5050391;28;20186;-43
2023/08/30 01:10:34;;;;;;;5.65;4.68;;;;;;;22.40;72.22;93763.41;5049827;28;20196;-43
2023/08/30 01:13:07;;;;;;;7.72;5.45;;;;;;;22.36;72.21;93767.50;5050269;28;20190;-44
2023/08/30 01:15:35;;;;;;;9.07;5.00;;;;;;;22.37;72.38;93776.94;5049808;28;20195;-44
2023/08/30 01:18:06;;;;;;;8.18;5.53;;;;;;;22.43;72.43;93783.00;5050230;28;20214;-44
2023/08/30 01:20:37;;;;;;;9.13;6.07;;;;;;;22.47;72.25;93787.53;5049802;28;20187;-43
2023/08/30 01:23:09;;;;;;;6.88;5.60;;;;;;;22.49;72.17;93787.28;5049917;28;20198;-44
2023/08/30 01:25:47;;;;;;;10.98;5.25;;;;;;;22.45;71.90;93781.78;5049817;28;20587;-44
2023/08/30 01:28:20;;;;;;;7.78;4.95;;;;;;;22.51;71.77;93782.66;5049449;28;20191;-43
2023/08/30 01:30:47;;;;;;;5.70;5.18;;;;;;;22.51;71.28;93773.00;5050086;28;20648;-44
2023/08/30 01:33:17;;;;;;;8.88;5.35;;;;;;;22.42;71.77;93771.81;5049846;28;20183;-44
2023/08/30 01:35:44;;;;;;;9.68;5.22;;;;;;;22.42;71.88;93771.81;5049785;28;20658;-44
2023/08/30 01:38:12;;;;;;;8.93;6.00;;;;;;;22.31;72.13;93761.44;5049519;28;20226;-43
2023/08/30 01:40:41;;;;;;;8.90;6.10;;;;;;;22.39;72.32;93768.88;5049432;28;20199;-42
2023/08/30 01:43:10;;;;;;;6.10;5.32;;;;;;;22.34;72.41;93760.97;5049659;28;20198;-43
2023/08/30 01:45:42;;;;;;;7.43;5.40;;;;;;;22.24;72.31;93758.97;5048808;28;20286;-43
2023/08/30 01:48:11;;;;;;;8.50;5.78;;;;;;;22.32;72.20;93787.22;5049612;28;20301;-43
2023/08/30 01:50:40;;;;;;;8.75;4.82;;;;;;;21.86;72.22;93705.63;5049518;28;20282;-43
2023/08/30 01:53:08;;;;;;;9.10;5.45;;;;;;;22.37;72.04;93771.72;5049452;28;20194;-44
2023/08/30 01:55:37;;;;;;;8.98;4.93;;;;;;;22.41;72.05;93770.22;5049165;28;20187;-43
2023/08/30 01:58:04;;;;;;;6.60;5.30;;;;;;;22.41;71.80;93777.22;5049423;28;20212;-43
2023/08/30 02:00:31;;;;;;;5.40;4.57;;;;;;;22.39;71.82;93782.69;5049046;28;20199;-43
2023/08/30 02:02:59;;;;;;;5.68;5.00;;;;;;;22.35;71.66;93776.34;5049535;28;20237;-44
2023/08/30 02:05:26;;;;;;;8.63;4.88;;;;;;;22.34;71.83;93774.00;5049292;28;20198;-44
2023/08/30 02:08:02;;;;;;;5.93;4.93;;;;;;;22.36;71.53;93769.31;5049310;28;20191;-45
2023/08/30 02:10:32;;;;;;;5.70;4.85;;;;;;;22.36;71.51;93771.94;5049104;28;20187;-44
2023/08/30 02:13:02;;;;;;;7.82;4.85;;;;;;;22.35;71.65;93765.16;5049276;28;20245;-43
2023/08/30 02:15:31;;;;;;;8.43;5.18;;;;;;;22.34;71.51;93764.38;5049242;28;20194;-44
2023/08/30 02:18:00;;;;;;;6.78;5.22;;;;;;;22.34;71.46;93763.56;5049215;28;20801;-43
2023/08/30 02:20:27;;;;;;;10.43;5.53;;;;;;;22.36;71.46;93770.13;5048711;28;20199;-44
2023/08/30 02:22:58;;;;;;;8.88;4.80;;;;;;;22.35;71.10;93772.97;5049356;28;20207;-43
2023/08/30 02:25:25;;;;;;;5.43;4.90;;;;;;;22.23;70.96;93758.16;5049218;28;20578;-43
2023/08/30 02:27:52;;;;;;;9.63;5.18;;;;;;;22.21;71.46;93762.03;5049054;28;20693;-44
2023/08/30 02:30:20;;;;;;;5.40;4.90;;;;;;;22.19;71.96;93759.69;5048701;28;20245;-44
2023/08/30 02:32:47;;;;;;;9.73;5.15;;;;;;;22.14;73.04;93756.94;5049312;28;20190;-44
2023/08/30 02:35:15;;;;;;;7.10;5.43;;;;;;;22.09;73.47;93769.06;5049136;28;20199;-45
2023/08/30 02:37:43;;;;;;;7.47;5.60;;;;;;;22.04;74.13;93769.75;5048788;28;20598;-42
2023/08/30 02:40:11;;;;;;;8.45;5.35;;;;;;;21.96;74.48;93764.91;5048841;28;20571;-44
2023/08/30 02:42:37;;;;;;;8.15;5.60;;;;;;;21.92;74.65;93764.56;5049205;28;20256;-43
2023/08/30 02:45:04;;;;;;;8.60;4.97;;;;;;;21.89;74.79;93762.44;5049158;28;20191;-44
2023/08/30 02:47:31;;;;;;;7.47;6.10;;;;;;;21.84;75.06;93762.31;5048774;28;20260;-43
2023/08/30 02:49:58;;;;;;;7.03;5.57;;;;;;;21.87;75.36;93755.88;5048868;28;20221;-43
2023/08/30 02:52:26;;;;;;;8.50;5.55;;;;;;;21.84;75.21;93754.50;5048748;28;20195;-43
2023/08/30 02:54:53;;;;;;;7.43;5.78;;;;;;;21.84;75.05;93754.50;5049001;28;20201;-42
2023/08/30 02:57:20;;;;;;;8.10;5.65;;;;;;;21.86;75.06;93747.28;5051189;28;20183;-43
2023/08/30 02:59:47;;;;;;;10.95;6.25;;;;;;;21.84;75.36;93745.91;5052608;28;20237;-44
2023/08/30 03:02:13;;;;;;;9.25;5.18;;;;;;;21.78;75.51;93747.63;5052282;28;20195;-44
2023/08/30 03:04:40;;;;;;;7.20;5.70;;;;;;;21.77;75.92;93746.84;5052265;28;20195;-44
2023/08/30 03:07:07;;;;;;;8.45;6.40;;;;;;;21.73;75.78;93745.72;5052261;28;20206;-44
2023/08/30 03:09:35;;;;;;;11.70;5.72;;;;;;;21.74;75.68;93749.13;5052555;28;20191;-44
2023/08/30 03:12:02;;;;;;;12.10;5.78;;;;;;;21.73;75.32;93760.56;5052463;28;20201;-43
2023/08/30 03:14:29;;;;;;;9.30;5.78;;;;;;;21.69;74.81;93751.63;5052472;28;20662;-44
2023/08/30 03:16:56;;;;;;;12.95;5.25;;;;;;;21.61;74.68;93760.56;5052399;28;20191;-43
2023/08/30 03:19:22;;;;;;;11.35;5.78;;;;;;;21.53;74.49;93761.69;5052210;28;20231;-42
2023/08/30 03:21:52;;;;;;;8.23;5.38;;;;;;;21.51;74.60;93762.97;5052587;28;20561;-43
2023/08/30 03:24:18;;;;;;;7.53;5.28;;;;;;;21.45;74.78;93751.63;5052817;28;20195;-42
2023/08/30 03:26:47;;;;;;;9.13;5.38;;;;;;;21.31;75.12;93739.88;5052686;28;20213;-42
2023/08/30 03:29:13;;;;;;;12.10;6.13;;;;;;;21.25;74.94;93741.56;5051826;28;20237;-41
2023/08/30 03:31:40;;;;;;;8.85;5.68;;;;;;;21.18;75.65;93737.50;5052205;28;20194;-43
2023/08/30 03:34:07;;;;;;;10.48;5.50;;;;;;;21.12;76.09;93741.00;5051946;28;20199;-42
2023/08/30 03:36:34;;;;;;;10.05;5.32;;;;;;;21.01;76.33;93732.97;5052201;28;20249;-44
2023/08/30 03:39:00;;;;;;;9.02;5.57;;;;;;;20.98;76.45;93737.81;5051694;28;20226;-44
2023/08/30 03:41:27;;;;;;;12.45;5.70;;;;;;;20.93;76.35;93730.69;5051926;28;20194;-43
2023/08/30 03:43:55;;;;;;;10.35;5.35;;;;;;;20.90;76.67;93725.19;5051656;28;20187;-43
2023/08/30 03:46:22;;;;;;;6.70;4.43;;;;;;;20.84;76.58;93721.66;5051694;28;20202;-43
2023/08/30 03:48:49;;;;;;;8.20;5.43;;;;;;;20.82;76.80;93728.09;5051480;28;20191;-42
2023/08/30 03:51:16;;;;;;;5.65;5.10;;;;;;;20.79;77.12;93730.13;5051821;28;20198;-42
2023/08/30 03:53:42;;;;;;;7.72;5.53;;;;;;;20.67;76.90;93725.91;5051576;28;20289;-43
2023/08/30 03:56:09;;;;;;;7.68;5.38;;;;;;;20.75;76.73;93741.19;5051697;28;20195;-43
2023/08/30 03:58:37;;;;;;;8.05;5.70;;;;;;;20.75;76.73;93754.19;5051648;28;20239;-43
2023/08/30 04:01:06;;;;;;;9.25;4.85;;;;;;;20.30;76.64;93687.88;5051691;28;20183;-44
2023/08/30 04:03:33;;;;;;;12.60;5.32;;;;;;;20.67;76.53;93749.28;5051386;28;20187;-44
2023/08/30 04:06:00;;;;;;;7.43;4.88;;;;;;;20.80;76.06;93768.06;5051123;28;20194;-43
2023/08/30 04:08:27;;;;;;;7.95;5.15;;;;;;;20.88;75.78;93745.38;5050388;28;20237;-42
2023/08/30 04:10:54;;;;;;;11.93;5.40;;;;;;;20.91;75.64;93748.34;5051013;28;20240;-45
2023/08/30 04:13:21;;;;;;;7.85;5.00;;;;;;;20.91;75.15;93742.34;5051287;28;20219;-44
2023/08/30 04:15:48;;;;;;;8.35;5.38;;;;;;;20.96;75.04;93751.03;5051032;28;20191;-43
2023/08/30 04:18:16;;;;;;;8.65;5.38;;;;;;;21.14;74.77;93775.34;5051181;28;20191;-44
2023/08/30 04:20:45;;;;;;;7.03;4.55;;;;;;;21.25;74.00;93766.78;5050756;28;20195;-44
2023/08/30 04:23:12;;;;;;;10.10;5.20;;;;;;;21.48;73.07;93771.22;5051219;28;20257;-43
2023/08/30 04:25:39;;;;;;;11.55;5.47;;;;;;;21.68;72.36;93779.47;5050632;28;20194;-44
2023/08/30 04:28:06;;;;;;;9.32;4.57;;;;;;;21.99;70.94;93793.88;5051055;28;20198;-43
2023/08/30 04:30:33;;;;;;;13.18;4.60;;;;;;;22.18;70.29;93802.34;5050398;28;20223;-44
2023/08/30 04:33:02;;;;;;;10.18;4.70;;;;;;;22.19;69.24;93788.31;5051147;28;20183;-43
2023/08/30 04:35:30;;;;;;;7.93;4.80;;;;;;;22.40;68.22;93825.16;5050581;28;20304;-44
2023/08/30 04:37:57;;;;;;;7.20;4.80;;;;;;;22.45;67.62;93836.50;5050651;28;20195;-45
2023/08/30 04:40:24;;;;;;;8.05;4.63;;;;;;;22.48;67.07;93835.22;5050697;28;20234;-44
2023/08/30 04:42:51;;;;;;;7.68;4.43;;;;;;;22.38;67.63;93824.63;5050494;28;20195;-44
2023/08/30 04:45:17;;;;;;;7.25;4.93;;;;;;;22.42;68.10;93818.72;5050779;28;20256;-44
2023/08/30 04:47:45;;;;;;;9.68;4.63;;;;;;;22.49;67.89;93837.56;5050171;28;20218;-43
2023/08/30 04:50:12;;;;;;;7.40;4.50;;;;;;;22.47;67.93;93850.06;5050599;28;20190;-44
2023/08/30 04:52:40;;;;;;;8.13;4.20;;;;;;;22.47;67.83;93838.84;5050448;28;20206;-43
2023/08/30 04:55:08;;;;;;;9.70;3.92;;;;;;;22.44;67.60;93826.28;5050358;28;20194;-44
2023/08/30 04:57:35;;;;;;;5.45;3.95;;;;;;;22.38;67.42;93827.22;5050258;28;20209;-42
2023/08/30 05:00:04;;;;;;;6.28;3.35;;;;;;;22.35;65.69;93818.03;5050474;28;20229;-43
2023/08/30 05:02:31;;;;;;;8.15;3.97;;;;;;;22.26;66.65;93817.63;5049848;28;20183;-43
2023/08/30 05:04:59;;;;;;;5.80;3.20;;;;;;;22.21;66.73;93832.34;5050451;28;20191;-44
2023/08/30 05:07:26;;;;;;;5.22;3.60;;;;;;;22.19;66.74;93827.38;5050204;28;20194;-44
2023/08/30 05:09:54;;;;;;;5.90;3.42;;;;;;;22.01;67.37;93793.63;5050226;28;20646;-45
2023/08/30 05:12:21;;;;;;;6.72;4.03;;;;;;;22.17;67.47;93821.59;5050368;28;20187;-44
2023/08/30 05:14:47;;;;;;;6.72;3.75;;;;;;;22.14;67.61;93803.03;5049945;28;20666;-45
2023/08/30 05:17:14;;;;;;;8.10;3.97;;;;;;;22.27;67.40;93821.00;5050182;28;20202;-44
2023/08/30 05:19:41;;;;;;;9.95;3.65;;;;;;;22.42;67.57;93823.13;5050236;28;20579;-45
2023/08/30 05:22:08;;;;;;;10.15;4.22;;;;;;;22.61;67.56;93823.72;5050127;28;20199;-42
2023/08/30 05:24:34;;;;;;;5.18;3.65;;;;;;;22.86;66.86;93823.38;5049811;28;20333;-43
2023/08/30 05:27:03;;;;;;;4.88;3.45;;;;;;;23.14;64.69;93814.75;5049732;28;20179;-43
2023/08/30 05:29:29;;;;;;;7.00;3.70;;;;;;;23.40;63.87;93826.34;5049500;28;20353;-45
2023/08/30 05:31:56;;;;;;;3.90;3.50;;;;;;;23.65;62.45;93821.53;5050053;28;20203;-43
2023/08/30 05:34:23;;;;;;;4.25;3.47;;;;;;;23.84;61.80;93835.13;5049442;28;20615;-42
2023/08/30 05:36:50;;;;;;;6.70;3.03;;;;;;;23.93;61.38;93828.47;5049686;28;20191;-44
2023/08/30 05:39:17;;;;;;;9.20;4.00;;;;;;;23.95;60.80;93815.16;5049544;28;20227;-43
2023/08/30 05:41:43;;;;;;;5.15;3.72;;;;;;;24.12;60.73;93825.56;5049770;28;20328;-43
2023/08/30 05:44:12;;;;;;;6.22;3.42;;;;;;;24.17;60.17;93820.38;5049809;28;20556;-45
2023/08/30 05:46:38;;;;;;;5.88;3.65;;;;;;;24.16;60.34;93832.66;5050149;28;20206;-45
2023/08/30 05:49:05;;;;;;;7.43;3.58;;;;;;;24.22;60.38;93828.28;5049938;28;20300;-43
2023/08/30 05:51:32;;;;;;;5.93;3.70;;;;;;;24.35;60.00;93827.13;5049531;28;20191;-45
2023/08/30 05:53:59;;;;;;;5.88;3.10;;;;;;;24.56;58.07;93820.34;5049738;28;20199;-43
2023/08/30 05:56:28;;;;;;;7.22;4.03;;;;;;;24.85;57.13;93821.69;5049274;28;20245;-44
2023/08/30 05:58:54;;;;;;;6.05;3.65;;;;;;;25.05;56.36;93820.31;5049406;28;20202;-45
2023/08/30 06:01:22;;;;;;;5.55;3.75;;;;;;;25.32;55.15;93826.31;5049227;28;20194;-44
2023/08/30 06:03:49;;;;;;;5.78;3.85;;;;;;;25.50;54.70;93833.75;5049447;28;20198;-44
2023/08/30 06:06:17;;;;;;;8.00;3.92;;;;;;;25.52;54.13;93810.75;5049268;28;20198;-42
2023/08/30 06:08:43;;;;;;;10.95;3.22;;;;;;;25.78;53.55;93826.66;5049535;28;20704;-43
2023/08/30 06:11:10;;;;;;;6.07;3.63;;;;;;;25.82;53.94;93821.66;5049255;28;20209;-45
2023/08/30 06:13:37;;;;;;;4.90;3.67;;;;;;;25.91;53.10;93817.56;5049424;28;20187;-43
2023/08/30 06:16:04;;;;;;;7.65;3.65;;;;;;;26.00;53.62;93816.81;5048902;28;20297;-44
2023/08/30 06:18:32;;;;;;;6.15;3.25;;;;;;;26.18;52.93;93820.81;5049193;28;20664;-45
2023/08/30 06:20:59;;;;;;;9.20;3.22;;;;;;;26.49;52.47;93829.63;5049211;28;20254;-42
2023/08/30 06:23:26;;;;;;;5.10;2.92;;;;;;;26.76;51.30;93834.66;5049174;28;20194;-42
2023/08/30 06:25:56;;;;;;;5.40;3.17;;;;;;;26.87;49.95;93829.44;5049242;28;20195;-42
2023/08/30 06:28:23;;;;;;;4.93;3.17;;;;;;;26.99;49.52;93837.88;5048693;28;20639;-45
2023/08/30 06:30:50;;;;;;;5.05;3.70;;;;;;;27.17;49.70;93837.41;5049106;28;20199;-44
2023/08/30 06:33:17;;;;;;;4.80;3.60;;;;;;;27.19;49.42;93827.41;5052511;28;20561;-43
2023/08/30 06:35:45;;;;;;;6.70;3.60;;;;;;;27.23;49.54;93832.91;5053069;28;20191;-42
2023/08/30 06:38:12;;;;;;;5.57;3.25;;;;;;;27.23;48.83;93836.34;5052810;28;20659;-43
2023/08/30 06:40:44;;;;;;;4.45;3.35;;;;;;;27.13;49.64;93851.31;5052714;28;20207;-43
2023/08/30 06:43:11;;;;;;;3.80;3.08;;;;;;;27.21;49.14;93838.44;5052681;28;20582;-45
2023/08/30 06:45:38;;;;;;;7.75;3.80;;;;;;;27.29;49.05;93844.22;5052720;28;20515;-43
2023/08/30 06:48:06;;;;;;;6.20;3.65;;;;;;;27.21;49.21;93845.53;5052708;28;20195;-44
2023/08/30 06:50:33;;;;;;;5.72;3.80;;;;;;;27.06;49.59;93845.47;5053142;28;20194;-45
2023/08/30 06:53:01;;;;;;;4.90;3.05;;;;;;;26.90;49.91;93836.78;5052800;28;20187;-44
2023/08/30 06:55:28;;;;;;;7.90;3.47;;;;;;;26.52;50.54;93815.22;5051122;28;20311;-45
2023/08/30 06:57:56;;;;;;;10.63;4.60;;;;;;;26.55;50.97;93829.63;5032415;28;20192;-42
2023/08/30 07:00:23;;;;;;;6.15;4.25;;;;;;;26.84;51.32;93845.72;5032992;28;20227;-45
2023/08/30 07:02:50;;;;;;;5.97;4.15;;;;;;;27.06;50.26;93840.22;5032996;28;20199;-43
2023/08/30 07:05:17;;;;;;;4.03;3.35;;;;;;;27.20;50.21;93846.56;5032638;28;20631;-44
2023/08/30 07:07:43;;;;;;;8.63;3.63;;;;;;;27.53;49.47;93837.38;5033080;28;20183;-46
2023/08/30 07:10:12;;;;;;;8.32;3.72;;;;;;;27.77;49.42;93840.28;5032382;28;20192;-44
2023/08/30 07:12:39;;;;;;;6.47;3.53;;;;;;;28.06;49.08;93835.22;5032749;28;20600;-45
2023/08/30 07:15:06;;;;;;;7.72;3.67;;;;;;;28.14;48.87;93836.50;5032440;28;20201;-44
2023/08/30 07:17:36;;;;;;;5.60;3.55;;;;;;;28.45;48.49;93837.19;5032409;28;20682;-43
2023/08/30 07:20:08;;;;;;;5.75;3.15;;;;;;;28.80;47.21;93830.19;5030949;28;20734;-44
2023/08/30 07:22:35;;;;;;;4.53;3.30;;;;;;;28.75;46.97;93842.31;5031995;28;20559;-43
2023/08/30 07:25:03;;;;;;;8.90;4.10;;;;;;;28.56;47.00;93837.97;5032368;28;20254;-44
2023/08/30 07:27:34;;;;;;;8.43;4.22;;;;;;;28.60;47.39;93837.16;5032142;28;20234;-44
2023/08/30 07:30:04;;;;;;;9.98;3.78;;;;;;;28.78;46.84;93846.25;5045584;28;20231;-43
2023/08/30 07:32:31;;;;;;;4.68;3.13;;;;;;;29.02;45.25;93842.97;5051743;28;20249;-42
2023/08/30 07:34:58;;;;;;;4.68;3.45;;;;;;;29.04;44.93;93852.19;5051772;28;20650;-44
2023/08/30 07:37:24;;;;;;;4.78;3.65;;;;;;;28.73;45.67;93843.66;5051979;28;20183;-45
2023/08/30 07:39:52;;;;;;;4.00;3.33;;;;;;;28.69;46.11;93848.69;5051360;28;20214;-44
2023/08/30 07:42:19;;;;;;;4.43;3.47;;;;;;;28.71;46.55;93840.50;5051497;28;20620;-44
2023/08/30 07:44:47;;;;;;;4.38;3.63;;;;;;;29.02;46.15;93837.72;5050547;28;20592;-44
2023/08/30 07:47:14;;;;;;;10.55;3.53;;;;;;;29.18;45.51;93832.06;5051589;28;20191;-42
2023/08/30 07:49:41;;;;;;;8.20;4.25;;;;;;;29.16;45.30;93833.44;5051492;28;20671;-44
2023/08/30 07:52:10;;;;;;;5.70;3.50;;;;;;;29.18;45.36;93836.56;5051535;28;20625;-43
2023/08/30 07:54:38;;;;;;;4.78;3.92;;;;;;;29.19;44.72;93840.78;5051582;28;20199;-43
2023/08/30 07:57:05;;;;;;;5.07;3.65;;;;;;;29.10;43.50;93842.41;5051324;28;20631;-44
2023/08/30 07:59:34;;;;;;;5.22;3.28;;;;;;;28.96;44.63;93843.03;5051501;28;20192;-43
2023/08/30 08:02:02;;;;;;;10.68;4.35;;;;;;;28.88;44.88;93846.19;5051297;28;20237;-43
2023/08/30 08:04:29;;;;;;;5.30;3.65;;;;;;;28.50;45.70;93803.78;5051344;28;20199;-43
2023/08/30 08:06:56;;;;;;;7.72;3.53;;;;;;;29.00;45.21;93851.16;5051514;28;20547;-44
2023/08/30 08:09:22;;;;;;;9.35;3.72;;;;;;;29.25;45.23;93842.31;5051734;28;20340;-44
2023/08/30 08:11:49;;;;;;;5.72;3.42;;;;;;;29.64;43.23;93838.88;5051048;28;20724;-45
2023/08/30 08:14:16;;;;;;;5.53;3.75;;;;;;;29.63;42.76;93822.28;5051189;28;20324;-44
2023/08/30 08:16:43;;;;;;;4.38;3.03;;;;;;;30.00;42.10;93844.56;5050952;28;20218;-44
2023/08/30 08:19:12;;;;;;;4.47;3.50;;;;;;;29.87;42.26;93842.59;5051523;28;20190;-46
2023/08/30 08:21:39;;;;;;;5.80;3.00;;;;;;;29.79;42.43;93848.47;5051000;28;20231;-44
2023/08/30 08:24:06;;;;;;;3.65;2.67;;;;;;;29.80;41.12;93850.84;5051227;28;20202;-46
2023/08/30 08:26:33;;;;;;;6.15;2.88;;;;;;;29.96;41.08;93854.09;5050992;28;20597;-43
2023/08/30 08:29:00;;;;;;;4.70;3.60;;;;;;;30.07;40.88;93850.31;5051265;28;20226;-43
2023/08/30 08:31:27;;;;;;;5.07;2.63;;;;;;;29.95;41.24;93858.59;5051198;28;20686;-43
2023/08/30 08:34:08;;;;;;;6.25;3.40;;;;;;;29.61;41.70;93863.13;5050723;28;20716;-44
2023/08/30 08:36:36;;;;;;;6.95;3.25;;;;;;;29.64;42.24;93860.72;5050787;28;20190;-43
2023/08/30 08:39:04;;;;;;;11.15;3.47;;;;;;;29.97;42.19;93860.97;5050201;28;20195;-44
2023/08/30 08:41:38;;;;;;;5.55;3.00;;;;;;;30.29;41.66;93852.47;5050552;28;20289;-44
2023/08/30 08:44:06;;;;;;;9.63;3.28;;;;;;;30.53;41.31;93852.47;5050847;28;20179;-44
2023/08/30 08:46:34;;;;;;;6.75;3.50;;;;;;;30.71;40.68;93853.56;5050639;28;20183;-44
2023/08/30 08:49:05;;;;;;;5.10;3.25;;;;;;;30.51;40.79;93843.25;5050505;28;20197;-43
2023/08/30 08:51:34;;;;;;;7.45;3.35;;;;;;;30.22;41.29;93844.91;5050910;28;20206;-44
2023/08/30 08:54:04;;;;;;;10.30;3.42;;;;;;;30.13;41.71;93848.38;5050005;28;20198;-44
2023/08/30 08:56:32;;;;;;;7.47;3.50;;;;;;;29.90;42.54;93848.09;5050663;28;20191;-43
2023/08/30 08:58:59;;;;;;;4.95;3.28;;;;;;;29.57;43.00;93835.75;5050244;28;20203;-43
2023/08/30 09:01:26;;;;;;;6.50;3.47;;;;;;;29.30;43.69;93841.47;5050373;28;20210;-44
2023/08/30 09:03:53;;;;;;;4.78;3.33;;;;;;;29.12;44.67;93832.41;5050936;28;20187;-44
2023/08/30 09:06:20;;;;;;;6.47;3.40;;;;;;;28.98;45.25;93830.38;5050543;28;20210;-42
2023/08/30 09:08:46;;;;;;;7.65;3.05;;;;;;;29.09;44.95;93828.44;5049955;28;20199;-42
2023/08/30 09:11:15;;;;;;;8.23;3.95;;;;;;;29.26;44.97;93835.97;5050235;28;20712;-45
2023/08/30 09:13:43;;;;;;;8.23;3.60;;;;;;;29.21;44.86;93831.53;5049949;28;20194;-44
2023/08/30 09:16:14;;;;;;;7.47;3.60;;;;;;;29.27;44.56;93828.84;5050177;28;20198;-43
2023/08/30 09:18:40;;;;;;;7.13;3.38;;;;;;;29.30;45.07;93823.03;5050040;28;20215;-44
2023/08/30 09:21:08;;;;;;;4.32;3.38;;;;;;;29.37;44.24;93818.25;5050202;28;20227;-44
2023/08/30 09:23:35;;;;;;;5.07;3.33;;;;;;;29.48;44.01;93817.09;5050347;28;20183;-43
2023/08/30 09:26:03;;;;;;;4.45;3.58;;;;;;;29.69;43.92;93821.16;5050229;28;20183;-44
2023/08/30 09:28:32;;;;;;;6.00;3.78;;;;;;;29.80;43.70;93826.34;5049751;28;20570;-44
2023/08/30 09:31:00;;;;;;;4.75;3.53;;;;;;;29.91;43.15;93825.94;5050267;28;20267;-43
2023/08/30 09:33:32;;;;;;;7.43;3.88;;;;;;;30.18;42.92;93822.78;5050168;28;20274;-42
2023/08/30 09:35:59;;;;;;;5.30;3.50;;;;;;;30.23;43.02;93821.94;5049439;28;20281;-44
2023/08/30 09:38:27;;;;;;;4.22;3.70;;;;;;;30.12;43.17;93823.09;5050310;28;20276;-44
2023/08/30 09:41:03;;;;;;;5.55;3.70;;;;;;;30.18;42.90;93816.72;5049969;28;20550;-43
2023/08/30 09:43:36;;;;;;;7.57;4.35;;;;;;;30.28;43.13;93827.16;5049999;28;20210;-45
2023/08/30 09:46:05;;;;;;;5.38;4.22;;;;;;;30.44;41.25;93825.09;5050081;28;20187;-45
2023/08/30 09:48:33;;;;;;;4.38;3.53;;;;;;;30.50;41.55;93816.06;5049990;28;20222;-42
2023/08/30 09:51:04;;;;;;;6.18;4.60;;;;;;;30.82;39.91;93817.25;5049731;28;20195;-43
2023/08/30 09:53:34;;;;;;;7.75;4.60;;;;;;;30.73;39.56;93811.84;5049892;28;20290;-45
2023/08/30 09:56:01;;;;;;;4.78;4.13;;;;;;;30.70;40.69;93817.66;5049717;28;20194;-43
2023/08/30 09:58:29;;;;;;;7.03;4.40;;;;;;;30.70;40.31;93812.38;5050016;28;20274;-43
2023/08/30 10:01:02;;;;;;;3.97;3.30;;;;;;;30.71;41.25;93814.75;5049564;28;20312;-44
2023/08/30 10:03:29;;;;;;;6.85;3.90;;;;;;;30.61;42.06;93816.72;5032466;28;20249;-44
2023/08/30 10:05:58;;;;;;;5.55;4.10;;;;;;;30.35;42.37;93797.78;5048499;28;20195;-44
2023/08/30 10:08:31;;;;;;;7.97;5.13;;;;;;;30.36;43.04;93807.28;5049845;28;20187;-46
2023/08/30 10:10:59;;;;;;;7.50;4.07;;;;;;;30.41;43.08;93807.22;5049306;28;20226;-44
2023/08/30 10:13:26;;;;;;;5.07;4.07;;;;;;;30.53;42.40;93807.59;5049500;28;20199;-44
2023/08/30 10:16:01;;;;;;;5.57;4.45;;;;;;;30.53;42.63;93804.16;5049164;28;20202;-45
2023/08/30 10:18:32;;;;;;;5.53;4.07;;;;;;;30.49;41.52;93794.19;5049471;28;20237;-45
2023/08/30 10:21:01;;;;;;;5.65;3.78;;;;;;;30.32;41.82;93795.72;5049098;28;20698;-45
2023/08/30 10:23:29;;;;;;;7.38;4.72;;;;;;;30.28;41.28;93792.88;5049468;28;20309;-44
2023/08/30 10:25:56;;;;;;;6.30;4.07;;;;;;;30.17;41.64;93786.91;5049255;28;20202;-44
2023/08/30 10:28:25;;;;;;;9.80;5.00;;;;;;;30.04;41.33;93770.97;5049248;28;20187;-43
2023/08/30 10:30:53;;;;;;;7.97;4.75;;;;;;;30.03;41.35;93782.59;5049110;28;20198;-44
2023/08/30 10:33:25;;;;;;;4.47;4.03;;;;;;;29.92;41.74;93792.44;5049479;28;20195;-44
2023/08/30 10:35:54;;;;;;;9.93;4.53;;;;;;;29.87;42.28;93785.38;5048717;28;20202;-43
2023/08/30 10:38:28;;;;;;;6.47;4.88;;;;;;;29.86;42.40;93790.94;5049086;28;20191;-45
2023/08/30 10:40:55;;;;;;;8.10;4.30;;;;;;;29.88;42.48;93786.16;5049005;28;20218;-43
2023/08/30 10:43:32;;;;;;;5.82;4.60;;;;;;;29.96;42.24;93785.53;5049284;28;20187;-44
2023/08/30 10:46:01;;;;;;;6.28;4.40;;;;;;;29.97;41.22;93790.56;5048965;28;20193;-44
2023/08/30 10:48:37;;;;;;;9.00;4.80;;;;;;;30.02;40.85;93779.16;5049584;28;20206;-43
2023/08/30 10:51:04;;;;;;;6.20;4.35;;;;;;;30.11;39.79;93777.47;5049476;28;20190;-44
2023/08/30 10:53:31;;;;;;;9.25;4.80;;;;;;;30.01;40.03;93769.69;5050024;28;20191;-43
2023/08/30 10:56:08;;;;;;;11.43;4.72;;;;;;;30.05;40.38;93775.94;5048893;28;20640;-43
2023/08/30 10:58:41;;;;;;;6.10;4.35;;;;;;;30.09;39.86;93770.91;5049504;28;20187;-44
2023/08/30 11:01:11;;;;;;;5.43;4.25;;;;;;;30.14;40.22;93776.94;5049126;28;20221;-46
2023/08/30 11:03:41;;;;;;;8.07;4.13;;;;;;;30.31;39.96;93784.41;5049018;28;20202;-43
2023/08/30 11:06:07;;;;;;;8.10;4.55;;;;;;;30.49;39.50;93777.56;5049037;28;20294;-44
2023/08/30 11:08:36;;;;;;;6.32;4.50;;;;;;;30.51;39.29;93777.28;5049118;28;20651;-43
2023/08/30 11:11:10;;;;;;;10.73;5.18;;;;;;;30.50;39.09;93771.22;5048951;28;20621;-42
2023/08/30 11:13:37;;;;;;;6.20;4.85;;;;;;;30.42;38.88;93759.44;5049082;28;20628;-44
2023/08/30 11:16:05;;;;;;;7.00;4.85;;;;;;;30.61;37.63;93763.94;5048611;28;20202;-43
2023/08/30 11:18:31;;;;;;;7.00;4.70;;;;;;;30.55;37.85;93757.94;5051199;28;20666;-43
2023/08/30 11:21:03;;;;;;;8.45;4.93;;;;;;;30.54;38.05;93761.66;5052062;28;20218;-44
2023/08/30 11:23:30;;;;;;;5.63;4.50;;;;;;;30.68;37.05;93759.09;5052743;28;20194;-43
2023/08/30 11:25:57;;;;;;;6.18;4.38;;;;;;;30.77;36.58;93757.41;5052090;28;20198;-44
2023/08/30 11:28:24;;;;;;;7.25;4.80;;;;;;;30.82;36.38;93745.97;5051951;28;20652;-44
2023/08/30 11:30:52;;;;;;;7.72;4.40;;;;;;;30.94;36.05;93749.75;5051744;28;20265;-44
2023/08/30 11:33:19;;;;;;;11.77;4.82;;;;;;;31.01;35.50;93738.81;5052225;28;20237;-44
2023/08/30 11:35:46;;;;;;;6.53;4.63;;;;;;;31.05;36.21;93736.41;5052024;28;20203;-45